sensor_id;sensor_type;location;lat;lon;timestamp;P1;durP1;ratioP1;P2;durP2;ratioP2
68250;SDS011;55066;51.560;4.642;2022-09-09T00:00:49;5.93;;;2.30;;
68250;SDS011;55066;51.560;4.642;2022-09-09T00:03:26;6.63;;;2.63;;
68250;SDS011;55066;51.560;4.642;2022-09-09T00:06:08;7.70;;;2.75;;
68250;SDS011;55066;51.560;4.642;2022-09-09T00:11:54;8.13;;;2.63;;
68250;SDS011;55066;51.560;4.642;2022-09-09T00:14:32;6.20;;;2.33;;
68250;SDS011;55066;51.560;4.642;2022-09-09T00:17:08;7.53;;;2.65;;
68250;SDS011;55066;51.560;4.642;2022-09-09T00:19:39;9.48;;;2.72;;
68250;SDS011;55066;51.560;4.642;2022-09-09T00:22:17;6.05;;;2.40;;
68250;SDS011;55066;51.560;4.642;2022-09-09T00:24:46;5.75;;;2.53;;
68250;SDS011;55066;51.560;4.642;2022-09-09T00:27:22;9.47;;;2.97;;
68250;SDS011;55066;51.560;4.642;2022-09-09T00:32:45;6.55;;;3.00;;
68250;SDS011;55066;51.560;4.642;2022-09-09T00:35:17;8.43;;;2.95;;
68250;SDS011;55066;51.560;4.642;2022-09-09T00:37:44;7.75;;;3.40;;
68250;SDS011;55066;51.560;4.642;2022-09-09T00:40:20;9.03;;;3.43;;
68250;SDS011;55066;51.560;4.642;2022-09-09T00:43:10;16.10;;;3.50;;
68250;SDS011;55066;51.560;4.642;2022-09-09T00:51:10;8.85;;;3.10;;
68250;SDS011;55066;51.560;4.642;2022-09-09T00:54:07;6.37;;;3.17;;
68250;SDS011;55066;51.560;4.642;2022-09-09T01:02:21;7.25;;;3.30;;
68250;SDS011;55066;51.560;4.642;2022-09-09T01:04:53;16.20;;;3.65;;
68250;SDS011;55066;51.560;4.642;2022-09-09T01:07:19;7.83;;;3.07;;
68250;SDS011;55066;51.560;4.642;2022-09-09T01:10:03;7.28;;;3.40;;
68250;SDS011;55066;51.560;4.642;2022-09-09T01:12:41;8.88;;;3.10;;
68250;SDS011;55066;51.560;4.642;2022-09-09T01:15:12;8.20;;;3.00;;
68250;SDS011;55066;51.560;4.642;2022-09-09T01:20:23;6.23;;;2.70;;
68250;SDS011;55066;51.560;4.642;2022-09-09T01:23:19;8.70;;;3.15;;
68250;SDS011;55066;51.560;4.642;2022-09-09T01:28:50;12.45;;;3.13;;
68250;SDS011;55066;51.560;4.642;2022-09-09T01:34:19;10.77;;;3.00;;
68250;SDS011;55066;51.560;4.642;2022-09-09T01:36:58;8.32;;;2.97;;
68250;SDS011;55066;51.560;4.642;2022-09-09T01:39:29;7.18;;;2.60;;
68250;SDS011;55066;51.560;4.642;2022-09-09T01:42:02;7.68;;;2.72;;
68250;SDS011;55066;51.560;4.642;2022-09-09T01:44:30;7.47;;;2.72;;
68250;SDS011;55066;51.560;4.642;2022-09-09T01:46:56;7.57;;;2.63;;
68250;SDS011;55066;51.560;4.642;2022-09-09T01:49:21;6.68;;;2.70;;
68250;SDS011;55066;51.560;4.642;2022-09-09T01:51:49;6.47;;;2.40;;
68250;SDS011;55066;51.560;4.642;2022-09-09T01:54:27;8.17;;;2.47;;
68250;SDS011;55066;51.560;4.642;2022-09-09T01:57:06;8.18;;;2.63;;
68250;SDS011;55066;51.560;4.642;2022-09-09T02:02:26;5.35;;;2.00;;
68250;SDS011;55066;51.560;4.642;2022-09-09T02:07:56;5.00;;;2.07;;
68250;SDS011;55066;51.560;4.642;2022-09-09T02:13:13;8.25;;;2.30;;
68250;SDS011;55066;51.560;4.642;2022-09-09T02:15:57;5.78;;;2.20;;
68250;SDS011;55066;51.560;4.642;2022-09-09T02:19:01;6.45;;;1.70;;
68250;SDS011;55066;51.560;4.642;2022-09-09T02:22:17;5.77;;;1.80;;
68250;SDS011;55066;51.560;4.642;2022-09-09T02:24:46;5.28;;;1.90;;
68250;SDS011;55066;51.560;4.642;2022-09-09T02:27:18;8.98;;;2.17;;
68250;SDS011;55066;51.560;4.642;2022-09-09T02:29:45;6.00;;;2.00;;
68250;SDS011;55066;51.560;4.642;2022-09-09T02:32:16;6.47;;;2.03;;
68250;SDS011;55066;51.560;4.642;2022-09-09T02:34:50;4.50;;;1.97;;
68250;SDS011;55066;51.560;4.642;2022-09-09T02:37:21;7.65;;;2.20;;
68250;SDS011;55066;51.560;4.642;2022-09-09T02:39:52;3.92;;;1.90;;
68250;SDS011;55066;51.560;4.642;2022-09-09T02:42:19;5.03;;;1.70;;
68250;SDS011;55066;51.560;4.642;2022-09-09T02:44:45;4.57;;;2.13;;
68250;SDS011;55066;51.560;4.642;2022-09-09T02:52:40;7.80;;;2.30;;
68250;SDS011;55066;51.560;4.642;2022-09-09T02:55:24;5.68;;;2.00;;
68250;SDS011;55066;51.560;4.642;2022-09-09T02:58:12;4.80;;;2.22;;
68250;SDS011;55066;51.560;4.642;2022-09-09T03:00:42;6.35;;;2.70;;
68250;SDS011;55066;51.560;4.642;2022-09-09T03:03:09;4.85;;;2.10;;
68250;SDS011;55066;51.560;4.642;2022-09-09T03:05:36;3.80;;;1.75;;
68250;SDS011;55066;51.560;4.642;2022-09-09T03:08:01;6.60;;;1.90;;
68250;SDS011;55066;51.560;4.642;2022-09-09T03:10:28;10.57;;;2.30;;
68250;SDS011;55066;51.560;4.642;2022-09-09T03:12:53;7.35;;;2.42;;
68250;SDS011;55066;51.560;4.642;2022-09-09T03:15:20;6.07;;;2.40;;
68250;SDS011;55066;51.560;4.642;2022-09-09T03:17:46;9.20;;;2.10;;
68250;SDS011;55066;51.560;4.642;2022-09-09T03:20:12;5.70;;;2.10;;
68250;SDS011;55066;51.560;4.642;2022-09-09T03:22:37;8.18;;;2.50;;
68250;SDS011;55066;51.560;4.642;2022-09-09T03:25:03;7.40;;;2.60;;
68250;SDS011;55066;51.560;4.642;2022-09-09T03:27:29;8.48;;;2.28;;
68250;SDS011;55066;51.560;4.642;2022-09-09T03:29:55;6.03;;;2.38;;
68250;SDS011;55066;51.560;4.642;2022-09-09T03:32:23;5.83;;;2.30;;
68250;SDS011;55066;51.560;4.642;2022-09-09T03:34:52;6.85;;;2.40;;
68250;SDS011;55066;51.560;4.642;2022-09-09T03:37:18;7.45;;;2.38;;
68250;SDS011;55066;51.560;4.642;2022-09-09T03:39:45;7.10;;;2.60;;
68250;SDS011;55066;51.560;4.642;2022-09-09T03:42:15;9.53;;;2.57;;
68250;SDS011;55066;51.560;4.642;2022-09-09T03:44:44;7.68;;;2.53;;
68250;SDS011;55066;51.560;4.642;2022-09-09T03:47:12;6.93;;;2.35;;
68250;SDS011;55066;51.560;4.642;2022-09-09T03:49:38;6.40;;;2.10;;
68250;SDS011;55066;51.560;4.642;2022-09-09T03:52:04;9.73;;;2.60;;
68250;SDS011;55066;51.560;4.642;2022-09-09T03:54:30;6.38;;;1.70;;
68250;SDS011;55066;51.560;4.642;2022-09-09T03:56:55;9.77;;;2.80;;
68250;SDS011;55066;51.560;4.642;2022-09-09T03:59:21;4.78;;;2.00;;
68250;SDS011;55066;51.560;4.642;2022-09-09T04:01:48;7.95;;;2.17;;
68250;SDS011;55066;51.560;4.642;2022-09-09T04:04:13;8.97;;;2.57;;
68250;SDS011;55066;51.560;4.642;2022-09-09T04:06:39;7.45;;;2.33;;
68250;SDS011;55066;51.560;4.642;2022-09-09T04:09:05;9.77;;;2.40;;
68250;SDS011;55066;51.560;4.642;2022-09-09T04:11:32;8.15;;;2.25;;
68250;SDS011;55066;51.560;4.642;2022-09-09T04:13:58;9.00;;;2.63;;
68250;SDS011;55066;51.560;4.642;2022-09-09T04:16:24;7.87;;;2.00;;
68250;SDS011;55066;51.560;4.642;2022-09-09T04:18:49;7.97;;;2.25;;
68250;SDS011;55066;51.560;4.642;2022-09-09T04:21:16;8.60;;;2.27;;
68250;SDS011;55066;51.560;4.642;2022-09-09T04:23:42;6.60;;;2.25;;
68250;SDS011;55066;51.560;4.642;2022-09-09T04:26:08;12.02;;;2.20;;
68250;SDS011;55066;51.560;4.642;2022-09-09T04:28:35;9.18;;;2.33;;
68250;SDS011;55066;51.560;4.642;2022-09-09T04:31:07;3.95;;;1.52;;
68250;SDS011;55066;51.560;4.642;2022-09-09T04:33:40;10.83;;;2.40;;
68250;SDS011;55066;51.560;4.642;2022-09-09T04:36:05;9.30;;;2.65;;
68250;SDS011;55066;51.560;4.642;2022-09-09T04:38:32;7.10;;;2.40;;
68250;SDS011;55066;51.560;4.642;2022-09-09T04:40:57;9.75;;;2.35;;
68250;SDS011;55066;51.560;4.642;2022-09-09T04:43:24;9.73;;;2.33;;
68250;SDS011;55066;51.560;4.642;2022-09-09T04:45:51;10.00;;;2.23;;
68250;SDS011;55066;51.560;4.642;2022-09-09T04:48:19;7.10;;;2.25;;
68250;SDS011;55066;51.560;4.642;2022-09-09T04:50:59;5.35;;;1.85;;
68250;SDS011;55066;51.560;4.642;2022-09-09T04:53:32;6.50;;;1.88;;
68250;SDS011;55066;51.560;4.642;2022-09-09T04:56:06;11.52;;;2.50;;
68250;SDS011;55066;51.560;4.642;2022-09-09T04:58:38;8.83;;;2.33;;
68250;SDS011;55066;51.560;4.642;2022-09-09T05:01:09;11.45;;;2.30;;
68250;SDS011;55066;51.560;4.642;2022-09-09T05:03:38;10.68;;;2.67;;
68250;SDS011;55066;51.560;4.642;2022-09-09T05:06:07;8.57;;;2.67;;
68250;SDS011;55066;51.560;4.642;2022-09-09T05:08:36;12.10;;;2.53;;
68250;SDS011;55066;51.560;4.642;2022-09-09T05:11:02;7.20;;;2.53;;
68250;SDS011;55066;51.560;4.642;2022-09-09T05:13:29;10.82;;;2.53;;
68250;SDS011;55066;51.560;4.642;2022-09-09T05:15:56;9.35;;;2.80;;
68250;SDS011;55066;51.560;4.642;2022-09-09T05:18:22;8.60;;;2.60;;
68250;SDS011;55066;51.560;4.642;2022-09-09T05:20:48;9.45;;;2.40;;
68250;SDS011;55066;51.560;4.642;2022-09-09T05:23:16;8.17;;;2.40;;
68250;SDS011;55066;51.560;4.642;2022-09-09T05:25:42;12.18;;;2.70;;
68250;SDS011;55066;51.560;4.642;2022-09-09T05:28:08;9.57;;;2.55;;
68250;SDS011;55066;51.560;4.642;2022-09-09T05:30:34;8.00;;;2.80;;
68250;SDS011;55066;51.560;4.642;2022-09-09T05:33:02;8.27;;;2.33;;
68250;SDS011;55066;51.560;4.642;2022-09-09T05:35:27;9.60;;;2.60;;
68250;SDS011;55066;51.560;4.642;2022-09-09T05:37:52;9.68;;;2.28;;
68250;SDS011;55066;51.560;4.642;2022-09-09T05:40:18;9.03;;;2.20;;
68250;SDS011;55066;51.560;4.642;2022-09-09T05:42:44;11.50;;;2.67;;
68250;SDS011;55066;51.560;4.642;2022-09-09T05:45:09;8.68;;;2.35;;
68250;SDS011;55066;51.560;4.642;2022-09-09T05:47:35;10.27;;;2.17;;
68250;SDS011;55066;51.560;4.642;2022-09-09T05:50:03;13.02;;;2.38;;
68250;SDS011;55066;51.560;4.642;2022-09-09T05:52:29;12.93;;;2.25;;
68250;SDS011;55066;51.560;4.642;2022-09-09T05:54:56;8.02;;;2.70;;
68250;SDS011;55066;51.560;4.642;2022-09-09T05:57:22;8.10;;;2.23;;
68250;SDS011;55066;51.560;4.642;2022-09-09T05:59:49;7.57;;;2.30;;
68250;SDS011;55066;51.560;4.642;2022-09-09T06:02:15;13.57;;;3.00;;
68250;SDS011;55066;51.560;4.642;2022-09-09T06:04:40;8.50;;;2.08;;
68250;SDS011;55066;51.560;4.642;2022-09-09T06:07:06;9.93;;;2.60;;
68250;SDS011;55066;51.560;4.642;2022-09-09T06:09:32;11.10;;;2.78;;
68250;SDS011;55066;51.560;4.642;2022-09-09T06:11:57;9.40;;;2.67;;
68250;SDS011;55066;51.560;4.642;2022-09-09T06:14:23;8.23;;;2.08;;
68250;SDS011;55066;51.560;4.642;2022-09-09T06:16:51;15.45;;;2.75;;
68250;SDS011;55066;51.560;4.642;2022-09-09T06:19:20;8.60;;;2.53;;
68250;SDS011;55066;51.560;4.642;2022-09-09T06:21:46;9.90;;;2.77;;
68250;SDS011;55066;51.560;4.642;2022-09-09T06:24:13;14.15;;;3.05;;
68250;SDS011;55066;51.560;4.642;2022-09-09T06:26:42;10.63;;;2.53;;
68250;SDS011;55066;51.560;4.642;2022-09-09T06:29:16;9.50;;;2.65;;
68250;SDS011;55066;51.560;4.642;2022-09-09T06:31:41;8.87;;;2.10;;
68250;SDS011;55066;51.560;4.642;2022-09-09T06:34:13;9.38;;;2.90;;
68250;SDS011;55066;51.560;4.642;2022-09-09T06:36:41;10.30;;;2.85;;
68250;SDS011;55066;51.560;4.642;2022-09-09T06:39:07;12.83;;;2.93;;
68250;SDS011;55066;51.560;4.642;2022-09-09T06:41:35;8.18;;;1.85;;
68250;SDS011;55066;51.560;4.642;2022-09-09T13:34:35;4.10;;;1.42;;
68250;SDS011;55066;51.560;4.642;2022-09-09T13:37:02;6.10;;;1.52;;
68250;SDS011;55066;51.560;4.642;2022-09-09T13:39:31;3.67;;;1.30;;
68250;SDS011;55066;51.560;4.642;2022-09-09T13:41:58;4.22;;;1.40;;
68250;SDS011;55066;51.560;4.642;2022-09-09T13:44:29;3.53;;;1.60;;
68250;SDS011;55066;51.560;4.642;2022-09-09T13:47:00;3.58;;;1.70;;
68250;SDS011;55066;51.560;4.642;2022-09-09T13:49:44;3.70;;;1.57;;
68250;SDS011;55066;51.560;4.642;2022-09-09T13:52:14;4.80;;;1.60;;
68250;SDS011;55066;51.560;4.642;2022-09-09T13:54:42;3.95;;;1.63;;
68250;SDS011;55066;51.560;4.642;2022-09-09T13:57:14;5.32;;;2.00;;
68250;SDS011;55066;51.560;4.642;2022-09-09T13:59:44;4.72;;;1.90;;
68250;SDS011;55066;51.560;4.642;2022-09-09T14:02:11;6.67;;;1.90;;
68250;SDS011;55066;51.560;4.642;2022-09-09T14:04:36;6.38;;;1.80;;
68250;SDS011;55066;51.560;4.642;2022-09-09T14:07:02;4.17;;;1.47;;
68250;SDS011;55066;51.560;4.642;2022-09-09T14:09:28;4.25;;;1.70;;
68250;SDS011;55066;51.560;4.642;2022-09-09T14:11:53;3.60;;;1.50;;
68250;SDS011;55066;51.560;4.642;2022-09-09T14:14:20;4.95;;;1.70;;
68250;SDS011;55066;51.560;4.642;2022-09-09T14:16:46;3.27;;;1.70;;
68250;SDS011;55066;51.560;4.642;2022-09-09T14:19:11;6.18;;;1.70;;
68250;SDS011;55066;51.560;4.642;2022-09-09T14:21:37;5.90;;;1.80;;
68250;SDS011;55066;51.560;4.642;2022-09-09T14:24:02;5.43;;;1.73;;
68250;SDS011;55066;51.560;4.642;2022-09-09T14:26:28;5.45;;;1.98;;
68250;SDS011;55066;51.560;4.642;2022-09-09T14:28:54;6.03;;;2.05;;
68250;SDS011;55066;51.560;4.642;2022-09-09T14:31:21;3.53;;;2.00;;
68250;SDS011;55066;51.560;4.642;2022-09-09T14:33:47;5.30;;;1.90;;
68250;SDS011;55066;51.560;4.642;2022-09-09T14:36:13;6.73;;;2.10;;
68250;SDS011;55066;51.560;4.642;2022-09-09T14:38:38;5.17;;;2.03;;
68250;SDS011;55066;51.560;4.642;2022-09-09T14:41:11;8.38;;;2.47;;
68250;SDS011;55066;51.560;4.642;2022-09-09T14:43:38;5.15;;;1.90;;
68250;SDS011;55066;51.560;4.642;2022-09-09T14:46:08;4.67;;;1.80;;
68250;SDS011;55066;51.560;4.642;2022-09-09T14:48:35;2.97;;;1.60;;
68250;SDS011;55066;51.560;4.642;2022-09-09T14:51:05;3.47;;;1.67;;
68250;SDS011;55066;51.560;4.642;2022-09-09T14:53:41;5.13;;;1.83;;
68250;SDS011;55066;51.560;4.642;2022-09-09T14:56:11;4.07;;;1.80;;
68250;SDS011;55066;51.560;4.642;2022-09-09T14:58:39;3.88;;;1.80;;
68250;SDS011;55066;51.560;4.642;2022-09-09T15:01:05;4.38;;;1.65;;
68250;SDS011;55066;51.560;4.642;2022-09-09T15:03:32;3.78;;;1.80;;
68250;SDS011;55066;51.560;4.642;2022-09-09T15:06:12;3.73;;;1.70;;
68250;SDS011;55066;51.560;4.642;2022-09-09T15:08:45;6.13;;;1.60;;
68250;SDS011;55066;51.560;4.642;2022-09-09T15:11:15;3.80;;;1.95;;
68250;SDS011;55066;51.560;4.642;2022-09-09T15:13:41;4.50;;;1.88;;
68250;SDS011;55066;51.560;4.642;2022-09-09T15:16:14;4.03;;;2.00;;
68250;SDS011;55066;51.560;4.642;2022-09-09T15:18:41;5.10;;;2.22;;
68250;SDS011;55066;51.560;4.642;2022-09-09T15:21:11;5.72;;;2.22;;
68250;SDS011;55066;51.560;4.642;2022-09-09T15:23:38;4.68;;;2.30;;
68250;SDS011;55066;51.560;4.642;2022-09-09T15:26:04;5.57;;;2.00;;
68250;SDS011;55066;51.560;4.642;2022-09-09T15:28:31;4.05;;;1.80;;
68250;SDS011;55066;51.560;4.642;2022-09-09T15:31:07;5.90;;;1.70;;
68250;SDS011;55066;51.560;4.642;2022-09-09T15:33:36;4.65;;;1.55;;
68250;SDS011;55066;51.560;4.642;2022-09-09T15:36:15;5.82;;;1.73;;
68250;SDS011;55066;51.560;4.642;2022-09-09T15:38:42;4.47;;;2.13;;
68250;SDS011;55066;51.560;4.642;2022-09-09T15:41:09;3.95;;;1.67;;
68250;SDS011;55066;51.560;4.642;2022-09-09T15:43:35;5.15;;;2.17;;
68250;SDS011;55066;51.560;4.642;2022-09-09T15:46:05;5.53;;;2.10;;
68250;SDS011;55066;51.560;4.642;2022-09-09T15:48:49;5.25;;;2.20;;
68250;SDS011;55066;51.560;4.642;2022-09-09T15:51:15;4.30;;;2.08;;
68250;SDS011;55066;51.560;4.642;2022-09-09T15:53:41;5.70;;;2.13;;
68250;SDS011;55066;51.560;4.642;2022-09-09T15:56:06;7.77;;;2.20;;
68250;SDS011;55066;51.560;4.642;2022-09-09T15:58:33;7.10;;;2.10;;
68250;SDS011;55066;51.560;4.642;2022-09-09T16:01:06;7.35;;;2.20;;
68250;SDS011;55066;51.560;4.642;2022-09-09T16:03:33;5.78;;;2.03;;
68250;SDS011;55066;51.560;4.642;2022-09-09T16:05:59;4.07;;;1.95;;
68250;SDS011;55066;51.560;4.642;2022-09-09T16:08:30;6.27;;;2.10;;
68250;SDS011;55066;51.560;4.642;2022-09-09T16:11:03;7.00;;;2.17;;
68250;SDS011;55066;51.560;4.642;2022-09-09T16:13:32;4.15;;;2.25;;
68250;SDS011;55066;51.560;4.642;2022-09-09T16:15:58;5.63;;;2.13;;
68250;SDS011;55066;51.560;4.642;2022-09-09T16:18:24;6.03;;;2.43;;
68250;SDS011;55066;51.560;4.642;2022-09-09T16:20:55;7.50;;;2.23;;
68250;SDS011;55066;51.560;4.642;2022-09-09T16:23:21;5.03;;;2.17;;
68250;SDS011;55066;51.560;4.642;2022-09-09T16:25:55;6.00;;;1.97;;
68250;SDS011;55066;51.560;4.642;2022-09-09T16:28:33;5.50;;;2.30;;
68250;SDS011;55066;51.560;4.642;2022-09-09T16:31:05;5.18;;;2.30;;
68250;SDS011;55066;51.560;4.642;2022-09-09T16:33:42;4.90;;;2.08;;
68250;SDS011;55066;51.560;4.642;2022-09-09T16:36:11;4.45;;;2.08;;
68250;SDS011;55066;51.560;4.642;2022-09-09T16:38:39;6.95;;;1.98;;
68250;SDS011;55066;51.560;4.642;2022-09-09T16:41:05;5.70;;;1.90;;
68250;SDS011;55066;51.560;4.642;2022-09-09T16:43:34;4.05;;;1.70;;
68250;SDS011;55066;51.560;4.642;2022-09-09T16:46:26;6.20;;;1.98;;
68250;SDS011;55066;51.560;4.642;2022-09-09T16:48:53;6.80;;;1.87;;
68250;SDS011;55066;51.560;4.642;2022-09-09T16:51:21;6.15;;;1.90;;
68250;SDS011;55066;51.560;4.642;2022-09-09T16:53:49;6.80;;;2.05;;
68250;SDS011;55066;51.560;4.642;2022-09-09T16:56:22;5.60;;;1.65;;
68250;SDS011;55066;51.560;4.642;2022-09-09T16:58:53;9.20;;;2.17;;
68250;SDS011;55066;51.560;4.642;2022-09-09T17:01:26;5.50;;;1.73;;
68250;SDS011;55066;51.560;4.642;2022-09-09T17:03:58;4.45;;;1.75;;
68250;SDS011;55066;51.560;4.642;2022-09-09T17:06:26;4.95;;;1.85;;
68250;SDS011;55066;51.560;4.642;2022-09-09T17:08:55;5.50;;;2.10;;
68250;SDS011;55066;51.560;4.642;2022-09-09T17:11:22;4.18;;;1.50;;
68250;SDS011;55066;51.560;4.642;2022-09-09T17:13:48;7.30;;;2.03;;
68250;SDS011;55066;51.560;4.642;2022-09-09T17:16:15;6.32;;;2.10;;
68250;SDS011;55066;51.560;4.642;2022-09-09T17:18:41;6.47;;;2.13;;
68250;SDS011;55066;51.560;4.642;2022-09-09T17:21:09;6.63;;;2.07;;
68250;SDS011;55066;51.560;4.642;2022-09-09T17:23:38;10.02;;;2.38;;
68250;SDS011;55066;51.560;4.642;2022-09-09T17:26:04;8.77;;;2.30;;
68250;SDS011;55066;51.560;4.642;2022-09-09T17:28:33;5.10;;;1.93;;
68250;SDS011;55066;51.560;4.642;2022-09-09T17:30:59;8.05;;;2.10;;
68250;SDS011;55066;51.560;4.642;2022-09-09T17:33:29;7.70;;;2.30;;
68250;SDS011;55066;51.560;4.642;2022-09-09T17:36:05;6.15;;;2.33;;
68250;SDS011;55066;51.560;4.642;2022-09-09T17:38:33;6.88;;;2.22;;
68250;SDS011;55066;51.560;4.642;2022-09-09T17:41:02;6.47;;;2.27;;
68250;SDS011;55066;51.560;4.642;2022-09-09T17:43:29;5.82;;;1.90;;
68250;SDS011;55066;51.560;4.642;2022-09-09T17:45:54;3.70;;;1.83;;
68250;SDS011;55066;51.560;4.642;2022-09-09T17:48:20;8.77;;;2.30;;
68250;SDS011;55066;51.560;4.642;2022-09-09T17:50:45;5.27;;;1.63;;
68250;SDS011;55066;51.560;4.642;2022-09-09T17:53:11;4.50;;;2.00;;
68250;SDS011;55066;51.560;4.642;2022-09-09T17:55:47;5.85;;;1.98;;
68250;SDS011;55066;51.560;4.642;2022-09-09T17:58:22;4.00;;;1.85;;
68250;SDS011;55066;51.560;4.642;2022-09-09T18:00:52;4.53;;;1.90;;
68250;SDS011;55066;51.560;4.642;2022-09-09T18:03:25;5.38;;;1.88;;
68250;SDS011;55066;51.560;4.642;2022-09-09T18:06:01;5.70;;;1.80;;
68250;SDS011;55066;51.560;4.642;2022-09-09T18:08:35;5.78;;;1.83;;
68250;SDS011;55066;51.560;4.642;2022-09-09T18:11:06;7.05;;;1.63;;
68250;SDS011;55066;51.560;4.642;2022-09-09T18:13:38;5.20;;;1.67;;
68250;SDS011;55066;51.560;4.642;2022-09-09T18:16:05;5.43;;;1.90;;
68250;SDS011;55066;51.560;4.642;2022-09-09T18:18:46;5.25;;;1.83;;
68250;SDS011;55066;51.560;4.642;2022-09-09T18:21:20;6.97;;;2.13;;
68250;SDS011;55066;51.560;4.642;2022-09-09T18:23:49;5.20;;;1.90;;
68250;SDS011;55066;51.560;4.642;2022-09-09T18:26:21;4.50;;;1.88;;
68250;SDS011;55066;51.560;4.642;2022-09-09T18:28:52;3.77;;;1.80;;
68250;SDS011;55066;51.560;4.642;2022-09-09T18:31:19;5.88;;;1.92;;
68250;SDS011;55066;51.560;4.642;2022-09-09T18:33:49;5.35;;;1.90;;
68250;SDS011;55066;51.560;4.642;2022-09-09T18:36:18;6.20;;;2.05;;
68250;SDS011;55066;51.560;4.642;2022-09-09T18:38:45;4.93;;;2.08;;
68250;SDS011;55066;51.560;4.642;2022-09-09T18:43:42;6.47;;;2.55;;
68250;SDS011;55066;51.560;4.642;2022-09-09T18:46:09;5.40;;;2.60;;
68250;SDS011;55066;51.560;4.642;2022-09-09T18:48:35;7.30;;;2.67;;
68250;SDS011;55066;51.560;4.642;2022-09-09T18:51:05;6.63;;;3.22;;
68250;SDS011;55066;51.560;4.642;2022-09-09T18:53:32;10.23;;;3.72;;
68250;SDS011;55066;51.560;4.642;2022-09-09T18:56:01;7.40;;;3.10;;
68250;SDS011;55066;51.560;4.642;2022-09-09T18:58:29;7.60;;;3.63;;
68250;SDS011;55066;51.560;4.642;2022-09-09T19:00:56;7.07;;;3.63;;
68250;SDS011;55066;51.560;4.642;2022-09-09T19:03:23;6.57;;;3.38;;
68250;SDS011;55066;51.560;4.642;2022-09-09T19:05:50;8.43;;;3.35;;
68250;SDS011;55066;51.560;4.642;2022-09-09T19:08:16;6.47;;;3.87;;
68250;SDS011;55066;51.560;4.642;2022-09-09T19:10:44;6.15;;;3.45;;
68250;SDS011;55066;51.560;4.642;2022-09-09T19:13:13;7.28;;;4.20;;
68250;SDS011;55066;51.560;4.642;2022-09-09T19:15:38;7.87;;;3.70;;
68250;SDS011;55066;51.560;4.642;2022-09-09T19:18:05;8.13;;;4.07;;
68250;SDS011;55066;51.560;4.642;2022-09-09T19:20:30;8.35;;;3.88;;
68250;SDS011;55066;51.560;4.642;2022-09-09T19:22:56;7.27;;;3.90;;
68250;SDS011;55066;51.560;4.642;2022-09-09T19:25:21;7.33;;;4.23;;
68250;SDS011;55066;51.560;4.642;2022-09-09T19:27:47;8.30;;;3.97;;
68250;SDS011;55066;51.560;4.642;2022-09-09T19:30:13;8.20;;;4.23;;
68250;SDS011;55066;51.560;4.642;2022-09-09T19:32:38;10.47;;;4.83;;
68250;SDS011;55066;51.560;4.642;2022-09-09T19:35:04;9.30;;;4.20;;
68250;SDS011;55066;51.560;4.642;2022-09-09T19:37:31;8.05;;;4.60;;
68250;SDS011;55066;51.560;4.642;2022-09-09T19:39:56;10.67;;;5.07;;
68250;SDS011;55066;51.560;4.642;2022-09-09T19:42:22;10.57;;;5.10;;
68250;SDS011;55066;51.560;4.642;2022-09-09T19:44:48;11.70;;;5.45;;
68250;SDS011;55066;51.560;4.642;2022-09-09T19:47:15;9.60;;;5.15;;
68250;SDS011;55066;51.560;4.642;2022-09-09T19:49:43;12.30;;;5.13;;
68250;SDS011;55066;51.560;4.642;2022-09-09T19:52:09;9.55;;;5.28;;
68250;SDS011;55066;51.560;4.642;2022-09-09T19:54:35;11.00;;;5.75;;
68250;SDS011;55066;51.560;4.642;2022-09-09T19:57:01;8.43;;;5.27;;
68250;SDS011;55066;51.560;4.642;2022-09-09T19:59:27;10.93;;;5.60;;
68250;SDS011;55066;51.560;4.642;2022-09-09T20:01:53;11.20;;;5.83;;
68250;SDS011;55066;51.560;4.642;2022-09-09T20:04:20;11.03;;;5.77;;
68250;SDS011;55066;51.560;4.642;2022-09-09T20:06:46;11.05;;;6.22;;
68250;SDS011;55066;51.560;4.642;2022-09-09T20:09:13;12.73;;;6.40;;
68250;SDS011;55066;51.560;4.642;2022-09-09T20:11:40;11.77;;;5.78;;
68250;SDS011;55066;51.560;4.642;2022-09-09T20:14:07;10.35;;;5.97;;
68250;SDS011;55066;51.560;4.642;2022-09-09T20:16:33;11.75;;;6.25;;
68250;SDS011;55066;51.560;4.642;2022-09-09T20:18:59;14.27;;;6.93;;
68250;SDS011;55066;51.560;4.642;2022-09-09T20:21:30;14.70;;;7.10;;
68250;SDS011;55066;51.560;4.642;2022-09-09T20:23:59;12.77;;;7.32;;
68250;SDS011;55066;51.560;4.642;2022-09-09T20:26:26;14.57;;;7.30;;
68250;SDS011;55066;51.560;4.642;2022-09-09T20:28:54;11.07;;;6.50;;
68250;SDS011;55066;51.560;4.642;2022-09-09T20:33:46;16.27;;;7.00;;
68250;SDS011;55066;51.560;4.642;2022-09-09T20:36:13;14.53;;;6.27;;
68250;SDS011;55066;51.560;4.642;2022-09-09T20:38:44;13.45;;;6.95;;
68250;SDS011;55066;51.560;4.642;2022-09-09T20:41:12;11.52;;;5.90;;
68250;SDS011;55066;51.560;4.642;2022-09-09T20:43:45;12.38;;;5.80;;
68250;SDS011;55066;51.560;4.642;2022-09-09T20:46:33;14.25;;;6.20;;
68250;SDS011;55066;51.560;4.642;2022-09-09T20:49:00;12.13;;;5.17;;
68250;SDS011;55066;51.560;4.642;2022-09-09T20:51:27;12.90;;;4.93;;
68250;SDS011;55066;51.560;4.642;2022-09-09T20:53:57;14.85;;;5.00;;
68250;SDS011;55066;51.560;4.642;2022-09-09T20:56:27;14.57;;;4.60;;
68250;SDS011;55066;51.560;4.642;2022-09-09T20:58:56;10.65;;;4.13;;
68250;SDS011;55066;51.560;4.642;2022-09-09T21:01:22;7.73;;;4.10;;
68250;SDS011;55066;51.560;4.642;2022-09-09T21:03:47;11.77;;;4.23;;
68250;SDS011;55066;51.560;4.642;2022-09-09T21:06:13;11.15;;;4.10;;
68250;SDS011;55066;51.560;4.642;2022-09-09T21:08:39;13.65;;;4.22;;
68250;SDS011;55066;51.560;4.642;2022-09-09T21:11:05;12.43;;;4.07;;
68250;SDS011;55066;51.560;4.642;2022-09-09T21:13:33;11.57;;;3.90;;
68250;SDS011;55066;51.560;4.642;2022-09-09T21:16:01;12.20;;;3.42;;
68250;SDS011;55066;51.560;4.642;2022-09-09T21:18:28;12.48;;;3.63;;
68250;SDS011;55066;51.560;4.642;2022-09-09T21:20:54;12.00;;;3.53;;
68250;SDS011;55066;51.560;4.642;2022-09-09T21:23:20;10.43;;;3.38;;
68250;SDS011;55066;51.560;4.642;2022-09-09T21:25:46;8.03;;;2.80;;
68250;SDS011;55066;51.560;4.642;2022-09-09T21:28:12;10.68;;;3.20;;
68250;SDS011;55066;51.560;4.642;2022-09-09T21:30:39;11.45;;;3.00;;
68250;SDS011;55066;51.560;4.642;2022-09-09T21:33:06;10.68;;;3.17;;
68250;SDS011;55066;51.560;4.642;2022-09-09T21:35:35;7.15;;;2.80;;
68250;SDS011;55066;51.560;4.642;2022-09-09T21:38:03;8.07;;;2.63;;
68250;SDS011;55066;51.560;4.642;2022-09-09T21:40:30;10.45;;;2.72;;
68250;SDS011;55066;51.560;4.642;2022-09-09T21:42:55;7.30;;;2.63;;
68250;SDS011;55066;51.560;4.642;2022-09-09T21:45:21;10.07;;;2.63;;
68250;SDS011;55066;51.560;4.642;2022-09-09T21:47:47;10.20;;;2.80;;
68250;SDS011;55066;51.560;4.642;2022-09-09T21:50:13;10.77;;;2.42;;
68250;SDS011;55066;51.560;4.642;2022-09-09T21:52:39;10.18;;;2.47;;
68250;SDS011;55066;51.560;4.642;2022-09-09T21:55:05;8.13;;;2.03;;
68250;SDS011;55066;51.560;4.642;2022-09-09T21:57:31;10.20;;;2.47;;
68250;SDS011;55066;51.560;4.642;2022-09-09T21:59:56;13.90;;;2.58;;
68250;SDS011;55066;51.560;4.642;2022-09-09T22:02:22;10.80;;;2.67;;
68250;SDS011;55066;51.560;4.642;2022-09-09T22:04:47;7.60;;;2.20;;
68250;SDS011;55066;51.560;4.642;2022-09-09T22:07:13;8.95;;;2.47;;
68250;SDS011;55066;51.560;4.642;2022-09-09T22:09:40;9.17;;;2.33;;
68250;SDS011;55066;51.560;4.642;2022-09-09T22:12:06;11.93;;;2.50;;
68250;SDS011;55066;51.560;4.642;2022-09-09T22:14:31;10.75;;;2.38;;
68250;SDS011;55066;51.560;4.642;2022-09-09T22:16:57;9.83;;;2.70;;
68250;SDS011;55066;51.560;4.642;2022-09-09T22:19:23;9.55;;;2.70;;
68250;SDS011;55066;51.560;4.642;2022-09-09T22:21:49;10.45;;;3.13;;
68250;SDS011;55066;51.560;4.642;2022-09-09T22:24:14;8.13;;;2.83;;
68250;SDS011;55066;51.560;4.642;2022-09-09T22:26:40;10.50;;;2.83;;
68250;SDS011;55066;51.560;4.642;2022-09-09T22:29:06;10.93;;;3.22;;
68250;SDS011;55066;51.560;4.642;2022-09-09T22:31:33;9.10;;;2.53;;